createdAt,value
2022-10-11T00:00:52.558Z,86.88
2022-10-11T00:03:19.366Z,86.04
2022-10-11T00:05:46.198Z,86.00
2022-10-11T00:08:13.350Z,85.75
2022-10-11T00:10:40.935Z,86.02
2022-10-11T00:13:07.866Z,85.37
2022-10-11T00:15:34.985Z,86.97
2022-10-11T00:18:05.212Z,87.01
2022-10-11T00:20:32.123Z,86.94
2022-10-11T00:22:58.691Z,87.09
2022-10-11T00:25:25.295Z,86.49
2022-10-11T00:27:51.788Z,87.02
2022-10-11T00:30:18.366Z,86.91
2022-10-11T00:32:44.972Z,86.65
2022-10-11T00:35:11.565Z,86.94
2022-10-11T00:37:39.219Z,87.13
2022-10-11T00:40:10.709Z,87.52
2022-10-11T00:42:37.429Z,86.94
2022-10-11T00:45:31.892Z,87.20
2022-10-11T00:48:05.114Z,87.19
2022-10-11T00:50:36.899Z,87.10
2022-10-11T00:53:08.056Z,86.82
2022-10-11T00:55:39.067Z,87.37
2022-10-11T00:58:06.456Z,87.29
2022-10-11T01:00:33.012Z,86.96
2022-10-11T01:03:00.784Z,87.76
2022-10-11T01:05:29.991Z,87.14
2022-10-11T01:07:59.047Z,88.60
2022-10-11T01:10:26.384Z,88.75
2022-10-11T01:13:19.123Z,88.81
2022-10-11T01:15:58.335Z,88.00
2022-10-11T01:18:35.838Z,87.99
2022-10-11T01:21:24.203Z,88.96
2022-10-11T01:23:56.863Z,89.54
2022-10-11T01:27:01.092Z,89.65
2022-10-11T01:29:51.973Z,89.65
2022-10-11T01:32:35.433Z,89.11
2022-10-11T01:35:21.838Z,89.27
2022-10-11T01:38:11.459Z,88.53
2022-10-11T01:40:52.570Z,89.48
2022-10-11T01:43:20.635Z,89.78
2022-10-11T01:45:50.940Z,90.48
2022-10-11T01:48:17.444Z,90.17
2022-10-11T01:50:46.744Z,90.16
2022-10-11T01:53:38.133Z,90.56
2022-10-11T01:56:07.889Z,91.92
2022-10-11T01:58:47.077Z,90.46
2022-10-11T02:01:41.654Z,90.74
2022-10-11T02:04:31.565Z,90.69
2022-10-11T02:07:01.546Z,91.87
2022-10-11T02:09:36.714Z,91.30
2022-10-11T02:12:08.171Z,90.67
2022-10-11T02:14:41.586Z,90.84
2022-10-11T02:17:20.847Z,90.45
2022-10-11T02:19:50.453Z,89.70
2022-10-11T02:22:27.756Z,89.00
2022-10-11T02:24:56.477Z,89.19
2022-10-11T02:27:26.084Z,89.19
2022-10-11T02:29:54.473Z,88.93
2022-10-11T02:32:22.329Z,88.54
2022-10-11T02:34:57.357Z,89.30
2022-10-11T02:37:49.392Z,89.20
2022-10-11T02:40:25.949Z,88.77
2022-10-11T02:42:59.989Z,87.85
2022-10-11T02:45:37.456Z,88.95
2022-10-11T02:48:05.214Z,88.29
2022-10-11T02:50:34.060Z,88.53
2022-10-11T02:53:00.677Z,88.67
2022-10-11T02:55:27.261Z,89.09
2022-10-11T02:57:53.951Z,88.61
2022-10-11T03:00:20.747Z,88.69
2022-10-11T03:02:47.472Z,88.36
2022-10-11T03:05:14.153Z,87.46
2022-10-11T03:07:40.752Z,87.19
2022-10-11T03:10:07.698Z,87.35
2022-10-11T03:12:36.996Z,87.13
2022-10-11T03:15:04.427Z,86.31
2022-10-11T03:17:36.668Z,86.55
2022-10-11T03:20:05.196Z,85.82
2022-10-11T03:22:31.757Z,86.65
2022-10-11T03:25:03.362Z,85.22
2022-10-11T03:27:30.793Z,84.95
2022-10-11T03:29:58.006Z,85.07
2022-10-11T03:32:24.863Z,85.20
2022-10-11T03:34:51.459Z,83.80
2022-10-11T03:37:18.309Z,84.46
2022-10-11T03:39:45.861Z,84.00
2022-10-11T03:42:13.292Z,84.29
2022-10-11T03:44:41.715Z,82.84
2022-10-11T03:47:08.666Z,82.83
2022-10-11T03:49:37.735Z,81.92
2022-10-11T03:52:07.985Z,81.91
2022-10-11T03:54:34.658Z,81.54
2022-10-11T03:57:03.171Z,82.02
2022-10-11T03:59:32.172Z,81.80
2022-10-11T04:01:58.896Z,81.30
2022-10-11T04:04:35.939Z,80.30
2022-10-11T04:07:02.667Z,80.78
2022-10-11T04:09:29.428Z,81.58
2022-10-11T04:11:58.558Z,80.75
2022-10-11T04:14:25.261Z,80.84
2022-10-11T04:16:51.880Z,81.39
2022-10-11T04:19:18.557Z,80.62
2022-10-11T04:21:45.111Z,81.06
2022-10-11T04:24:12.434Z,81.23
2022-10-11T04:26:41.037Z,80.84
2022-10-11T04:29:07.615Z,80.45
2022-10-11T04:31:34.298Z,80.49
2022-10-11T04:34:01.268Z,81.15
2022-10-11T04:36:30.203Z,79.90
2022-10-11T04:38:57.457Z,79.94
2022-10-11T04:41:26.763Z,80.68
2022-10-11T04:43:53.293Z,80.96
2022-10-11T04:46:19.881Z,79.69
2022-10-11T04:48:46.356Z,80.26
2022-10-11T04:51:13.287Z,80.41
2022-10-11T04:53:43.282Z,80.49
2022-10-11T04:56:14.822Z,79.77
2022-10-11T04:58:41.729Z,80.22
2022-10-11T05:01:08.831Z,80.19
2022-10-11T05:03:35.946Z,80.65
2022-10-11T05:06:05.683Z,80.41
2022-10-11T05:08:33.185Z,80.09
2022-10-11T05:11:02.359Z,80.36
2022-10-11T05:13:30.121Z,79.28
2022-10-11T05:15:57.137Z,80.69
2022-10-11T05:18:24.234Z,79.74
2022-10-11T05:20:59.923Z,80.07
2022-10-11T05:23:27.379Z,79.62
2022-10-11T05:25:58.627Z,79.31
2022-10-11T05:28:25.720Z,78.93
2022-10-11T05:30:52.729Z,78.60
2022-10-11T05:33:23.824Z,79.27
2022-10-11T05:35:50.575Z,79.48
2022-10-11T05:38:19.490Z,78.07
2022-10-11T05:40:46.587Z,79.21
2022-10-11T05:43:13.586Z,77.61
2022-10-11T05:45:41.595Z,78.16
2022-10-11T05:48:13.588Z,78.24
2022-10-11T05:50:44.085Z,78.12
2022-10-11T05:53:13.578Z,77.74
2022-10-11T05:55:44.292Z,77.52
2022-10-11T05:58:14.879Z,77.39
2022-10-11T06:00:47.162Z,77.28
2022-10-11T06:03:14.337Z,77.15
2022-10-11T06:05:40.859Z,76.28
2022-10-11T06:08:17.020Z,76.07
2022-10-11T06:10:44.863Z,75.53
2022-10-11T06:13:17.646Z,75.14
2022-10-11T06:15:53.950Z,74.66
2022-10-11T06:18:22.522Z,74.60
2022-10-11T06:20:49.620Z,75.07
2022-10-11T06:23:16.301Z,74.02
2022-10-11T06:25:42.842Z,75.11
2022-10-11T06:28:11.585Z,74.50
2022-10-11T06:30:40.645Z,74.70
2022-10-11T06:33:08.813Z,74.31
2022-10-11T06:35:38.376Z,73.64
2022-10-11T06:38:05.234Z,74.55
2022-10-11T06:40:31.922Z,73.65
2022-10-11T06:42:58.761Z,73.29
2022-10-11T06:45:34.093Z,74.14
2022-10-11T06:48:05.709Z,74.14
2022-10-11T06:50:57.856Z,73.87
2022-10-11T06:53:27.399Z,74.08
2022-10-11T06:55:54.117Z,74.12
2022-10-11T06:58:20.672Z,73.25
2022-10-11T07:00:48.651Z,73.49
2022-10-11T07:03:15.256Z,72.07
2022-10-11T07:05:42.838Z,72.48
2022-10-11T07:08:09.518Z,73.17
2022-10-11T07:10:37.300Z,73.23
2022-10-11T07:13:11.444Z,73.27
2022-10-11T07:15:44.020Z,73.09
2022-10-11T07:18:10.587Z,73.55
2022-10-11T07:20:37.206Z,70.85
2022-10-11T07:23:03.809Z,71.95
2022-10-11T07:25:30.485Z,72.69
2022-10-11T07:27:57.145Z,71.50
2022-10-11T07:30:23.669Z,71.17
2022-10-11T07:32:50.161Z,70.44
2022-10-11T07:35:16.747Z,71.49
2022-10-11T07:37:43.246Z,71.90
2022-10-11T07:40:11.305Z,71.69
2022-10-11T07:42:38.108Z,70.96
2022-10-11T07:45:05.225Z,70.32
2022-10-11T07:47:31.697Z,70.97
2022-10-11T07:49:58.145Z,70.89
2022-10-11T07:52:24.884Z,71.30
2022-10-11T07:54:54.760Z,70.59
2022-10-11T07:57:24.331Z,71.33
2022-10-11T07:59:56.113Z,71.06
2022-10-11T08:02:25.770Z,71.24
2022-10-11T08:05:00.871Z,70.80
2022-10-11T08:07:28.327Z,69.78
2022-10-11T08:10:15.682Z,71.90
2022-10-11T08:13:03.392Z,70.48
2022-10-11T08:18:29.336Z,70.03
2022-10-11T08:20:56.213Z,70.68
2022-10-11T08:23:22.752Z,70.92
2022-10-11T08:25:49.591Z,70.12
2022-10-11T08:28:19.256Z,68.43
2022-10-11T08:30:57.006Z,67.96
2022-10-11T08:33:42.801Z,68.64
2022-10-11T08:36:10.581Z,67.97
2022-10-11T08:38:38.042Z,66.87
2022-10-11T08:41:23.345Z,67.61
2022-10-11T08:44:37.332Z,68.68
2022-10-11T08:47:19.907Z,67.44
2022-10-11T08:49:47.007Z,66.79
2022-10-11T08:52:22.109Z,66.97
2022-10-11T08:55:11.747Z,67.83
2022-10-11T08:57:39.433Z,67.50
2022-10-11T09:00:11.415Z,67.90
2022-10-11T09:03:07.374Z,67.19
2022-10-11T09:05:58.305Z,67.67
2022-10-11T09:08:46.502Z,67.81
2022-10-11T09:11:17.343Z,68.57
2022-10-11T09:13:56.686Z,68.62
2022-10-11T09:16:39.759Z,68.14
2022-10-11T09:19:17.774Z,67.51
2022-10-11T09:21:50.738Z,67.57
2022-10-11T09:24:39.308Z,67.42
2022-10-11T09:27:38.081Z,68.25
2022-10-11T09:30:16.955Z,66.88
2022-10-11T09:32:51.864Z,66.89
2022-10-11T09:35:20.951Z,66.23
2022-10-11T09:38:25.994Z,66.76
2022-10-11T09:41:27.180Z,65.88
2022-10-11T09:43:53.900Z,66.16
2022-10-11T09:46:37.242Z,66.08
2022-10-11T09:49:09.195Z,65.11
2022-10-11T09:51:42.005Z,63.82
2022-10-11T09:54:10.882Z,64.02
2022-10-11T09:56:43.085Z,65.46
2022-10-11T09:59:29.015Z,61.53
2022-10-11T10:02:06.869Z,63.08
2022-10-11T10:04:33.743Z,62.34
2022-10-11T10:07:10.727Z,63.97
2022-10-11T10:09:39.659Z,62.47
2022-10-11T10:12:15.440Z,60.77
2022-10-11T10:14:42.111Z,60.99
2022-10-11T10:17:18.289Z,59.97
2022-10-11T10:19:54.070Z,61.89
2022-10-11T10:22:21.831Z,60.55
2022-10-11T10:24:51.976Z,61.09
2022-10-11T10:27:27.974Z,60.33
2022-10-11T10:30:09.518Z,59.17
2022-10-11T10:32:53.373Z,60.98
2022-10-11T10:35:29.767Z,60.48
2022-10-11T10:38:26.890Z,60.54
2022-10-11T10:40:59.154Z,61.93
2022-10-11T10:43:28.345Z,60.68
2022-10-11T10:46:31.911Z,60.09
2022-10-11T10:52:15.395Z,59.30
2022-10-11T10:55:13.066Z,58.13
2022-10-11T10:58:21.237Z,59.03
2022-10-11T11:01:04.515Z,59.79
2022-10-11T11:03:45.071Z,59.86
2022-10-11T11:06:24.521Z,60.21
2022-10-11T11:09:00.262Z,60.31
2022-10-11T11:11:48.363Z,60.09
2022-10-11T11:14:35.077Z,60.19
2022-10-11T11:17:19.922Z,60.42
2022-10-11T11:20:11.404Z,61.00
2022-10-11T11:23:03.520Z,60.10
2022-10-11T11:25:45.080Z,61.73
2022-10-11T11:28:35.083Z,60.11
2022-10-11T11:31:25.053Z,63.07
2022-10-11T11:34:06.916Z,61.86
2022-10-11T11:36:42.597Z,60.80
2022-10-11T11:39:21.236Z,60.60
2022-10-11T11:41:52.639Z,60.56
2022-10-11T11:44:46.647Z,60.97
2022-10-11T11:47:22.496Z,59.94
2022-10-11T11:50:07.585Z,61.81
2022-10-11T11:52:37.586Z,59.16
2022-10-11T11:55:25.509Z,59.33
2022-10-11T11:58:18.242Z,58.85
2022-10-11T12:00:58.332Z,59.15
2022-10-11T12:03:29.514Z,59.11
2022-10-11T12:06:14.826Z,59.50
2022-10-11T12:08:46.946Z,60.12
2022-10-11T12:11:34.518Z,59.86
2022-10-11T12:14:04.632Z,59.81
2022-10-11T12:16:33.415Z,58.76
2022-10-11T12:19:02.390Z,59.06
2022-10-11T12:21:38.656Z,58.75
2022-10-11T12:24:20.472Z,58.74
2022-10-11T12:26:48.604Z,59.29
2022-10-11T12:29:25.870Z,58.27
2022-10-11T12:32:01.013Z,57.81
2022-10-11T12:34:38.037Z,58.47
2022-10-11T12:37:19.882Z,57.15
2022-10-11T12:39:53.260Z,56.66
2022-10-11T12:42:31.449Z,58.32
2022-10-11T12:45:32.781Z,56.41
2022-10-11T12:48:24.899Z,55.79
2022-10-11T12:51:13.297Z,55.95
2022-10-11T12:54:25.054Z,54.58
2022-10-11T12:56:47.525Z,57.05
2022-10-11T12:59:21.069Z,56.48
2022-10-11T13:01:54.729Z,56.19
2022-10-11T13:04:28.401Z,56.60
2022-10-11T13:06:57.422Z,55.82
2022-10-11T13:09:39.351Z,56.12
2022-10-11T13:12:14.690Z,57.78
2022-10-11T13:14:44.554Z,57.69
2022-10-11T13:17:38.026Z,57.22
2022-10-11T13:20:37.467Z,57.33
2022-10-11T13:23:29.335Z,57.62
2022-10-11T13:25:56.157Z,58.05
2022-10-11T13:28:25.265Z,57.51
2022-10-11T13:30:56.619Z,57.46
2022-10-11T13:33:34.012Z,57.21
2022-10-11T13:36:03.162Z,58.04
2022-10-11T13:38:35.618Z,57.78
2022-10-11T13:41:08.531Z,58.91
2022-10-11T13:43:35.387Z,58.04
2022-10-11T13:46:05.231Z,58.34
2022-10-11T13:48:32.451Z,58.24
2022-10-11T13:51:27.058Z,58.19
2022-10-11T13:53:59.257Z,57.45
2022-10-11T13:56:27.238Z,57.42
2022-10-11T13:58:55.418Z,58.37
2022-10-11T14:01:25.616Z,57.04
2022-10-11T14:04:00.892Z,57.60
2022-10-11T14:06:54.888Z,58.06
2022-10-11T14:09:28.604Z,57.75
2022-10-11T14:11:55.741Z,58.72
2022-10-11T14:14:36.865Z,57.92
2022-10-11T14:17:16.050Z,59.61
2022-10-11T14:19:44.164Z,59.54
2022-10-11T14:22:19.870Z,59.34
2022-10-11T14:24:49.536Z,58.38
2022-10-11T14:27:22.178Z,58.60
2022-10-11T14:30:12.995Z,59.64
2022-10-11T14:32:42.421Z,59.92
2022-10-11T14:35:18.752Z,59.59
2022-10-11T14:37:45.532Z,59.09
2022-10-11T14:40:18.425Z,60.01
2022-10-11T14:42:48.254Z,59.85
2022-10-11T14:45:18.010Z,58.62
2022-10-11T14:47:45.334Z,59.12
2022-10-11T14:50:33.647Z,58.87
2022-10-11T14:53:00.617Z,59.09
2022-10-11T14:55:29.857Z,61.08
2022-10-11T14:57:56.964Z,60.49
2022-10-11T15:00:26.536Z,59.85
2022-10-11T15:02:54.067Z,60.03
2022-10-11T15:05:22.622Z,60.13
2022-10-11T15:07:49.737Z,61.52
2022-10-11T15:10:37.702Z,60.51
2022-10-11T15:13:06.947Z,59.69
2022-10-11T15:15:36.595Z,60.27
2022-10-11T15:18:04.988Z,60.16
2022-10-11T15:20:40.755Z,61.14
2022-10-11T15:23:12.096Z,61.28
2022-10-11T15:25:40.564Z,61.06
2022-10-11T15:28:08.103Z,60.39
2022-10-11T15:30:41.059Z,61.27
2022-10-11T15:33:08.578Z,60.39
2022-10-11T15:35:35.214Z,60.29
2022-10-11T15:38:01.790Z,61.78
2022-10-11T15:40:38.194Z,60.48
2022-10-11T15:43:05.074Z,61.64
2022-10-11T15:45:31.707Z,60.32
2022-10-11T15:47:58.860Z,60.86
2022-10-11T15:50:36.247Z,62.72
2022-10-11T15:53:12.226Z,61.77
2022-10-11T15:55:44.240Z,62.70
2022-10-11T15:58:15.409Z,61.59
2022-10-11T16:00:43.143Z,61.86
2022-10-11T16:03:11.683Z,61.40
2022-10-11T16:05:38.737Z,62.52
2022-10-11T16:08:05.416Z,62.57
2022-10-11T16:10:32.288Z,62.45
2022-10-11T16:12:58.813Z,62.55
2022-10-11T16:15:25.331Z,63.07
2022-10-11T16:17:52.144Z,64.32
2022-10-11T16:20:25.832Z,63.98
2022-10-11T16:22:56.058Z,63.76
2022-10-11T16:25:23.972Z,64.00
2022-10-11T16:27:51.015Z,64.15
2022-10-11T16:30:22.728Z,64.07
2022-10-11T16:32:49.548Z,63.83
2022-10-11T16:35:19.705Z,63.71
2022-10-11T16:37:46.356Z,64.36
2022-10-11T16:40:17.342Z,64.72
2022-10-11T16:42:44.911Z,64.79
2022-10-11T16:45:12.496Z,65.09
2022-10-11T16:47:39.154Z,65.30
2022-10-11T16:50:06.151Z,66.19
2022-10-11T16:52:32.849Z,66.49
2022-10-11T16:54:59.302Z,66.40
2022-10-11T16:57:25.854Z,66.41
2022-10-11T16:59:54.456Z,67.38
2022-10-11T17:02:31.330Z,67.59
2022-10-11T17:04:58.896Z,67.84
2022-10-11T17:07:25.527Z,68.01
2022-10-11T17:09:52.095Z,68.38
2022-10-11T17:12:21.306Z,67.93
2022-10-11T17:14:48.672Z,68.36
2022-10-11T17:17:15.836Z,68.56
2022-10-11T17:19:45.359Z,68.15
2022-10-11T17:22:13.050Z,68.01
2022-10-11T17:24:39.848Z,68.62
2022-10-11T17:27:06.907Z,69.28
2022-10-11T17:29:33.904Z,68.57
2022-10-11T17:32:02.083Z,69.20
2022-10-11T17:34:28.860Z,69.86
2022-10-11T17:36:55.514Z,68.99
2022-10-11T17:39:23.612Z,69.88
2022-10-11T17:41:50.474Z,69.78
2022-10-11T17:44:18.604Z,69.13
2022-10-11T17:46:48.339Z,69.78
2022-10-11T17:49:15.190Z,69.61
2022-10-11T17:51:42.091Z,69.59
2022-10-11T17:54:12.674Z,70.46
2022-10-11T17:56:40.938Z,69.90
2022-10-11T17:59:09.016Z,70.76
2022-10-11T18:01:36.315Z,71.18
2022-10-11T18:04:04.567Z,71.13
2022-10-11T18:06:34.108Z,72.01
2022-10-11T18:09:04.543Z,71.67
2022-10-11T18:11:31.485Z,71.02
2022-10-11T18:13:58.025Z,71.41
2022-10-11T18:16:29.371Z,71.65
2022-10-11T18:18:57.427Z,71.91
2022-10-11T18:21:29.871Z,71.97
2022-10-11T18:24:02.591Z,71.71
2022-10-11T18:26:30.745Z,72.35
2022-10-11T18:28:58.134Z,71.61
2022-10-11T18:31:28.433Z,71.44
2022-10-11T18:33:55.530Z,71.77
2022-10-11T18:36:24.515Z,71.74
2022-10-11T18:39:03.054Z,71.90
2022-10-11T18:41:31.793Z,71.88
2022-10-11T18:44:02.660Z,72.35
2022-10-11T18:46:29.713Z,72.23
2022-10-11T18:48:58.182Z,72.57
2022-10-11T18:51:30.673Z,73.77
2022-10-11T18:54:01.029Z,73.24
2022-10-11T18:56:29.155Z,73.80
2022-10-11T18:58:57.288Z,73.41
2022-10-11T19:01:30.065Z,73.12
2022-10-11T19:03:58.087Z,72.50
2022-10-11T19:06:30.398Z,73.07
2022-10-11T19:09:06.644Z,74.18
2022-10-11T19:11:39.045Z,75.32
2022-10-11T19:14:11.972Z,75.50
2022-10-11T19:16:40.814Z,75.01
2022-10-11T19:19:09.402Z,76.26
2022-10-11T19:21:36.240Z,76.28
2022-10-11T19:24:03.294Z,76.29
2022-10-11T19:26:33.584Z,76.25
2022-10-11T19:29:08.057Z,78.05
2022-10-11T19:31:38.306Z,77.17
2022-10-11T19:34:04.963Z,77.94
2022-10-11T19:36:36.257Z,77.93
2022-10-11T19:39:04.375Z,78.54
2022-10-11T19:41:31.418Z,78.18
2022-10-11T19:44:00.819Z,78.29
2022-10-11T19:46:51.088Z,77.73
2022-10-11T19:49:20.435Z,77.73
2022-10-11T19:51:47.148Z,78.60
2022-10-11T19:54:14.665Z,78.42
2022-10-11T19:56:42.524Z,79.00
2022-10-11T19:59:10.377Z,78.52
2022-10-11T20:01:40.364Z,78.67
2022-10-11T20:04:22.623Z,79.76
2022-10-11T20:06:54.325Z,79.98
2022-10-11T20:09:30.039Z,79.45
2022-10-11T20:11:58.374Z,79.76
2022-10-11T20:14:25.121Z,79.40
2022-10-11T20:16:52.091Z,79.18
2022-10-11T20:19:26.336Z,79.83
2022-10-11T20:21:57.534Z,80.87
2022-10-11T20:24:24.050Z,80.61
2022-10-11T20:26:50.514Z,81.35
2022-10-11T20:29:17.011Z,80.92
2022-10-11T20:31:46.683Z,81.02
2022-10-11T20:34:13.468Z,80.93
2022-10-11T20:36:39.978Z,81.13
2022-10-11T20:39:06.717Z,81.69
2022-10-11T20:41:37.047Z,81.43
2022-10-11T20:44:04.688Z,82.39
2022-10-11T20:46:33.694Z,82.12
2022-10-11T20:49:02.524Z,82.82
2022-10-11T20:51:36.931Z,82.96
2022-10-11T20:54:06.745Z,82.07
2022-10-11T20:56:34.422Z,82.50
2022-10-11T20:59:01.524Z,83.07
2022-10-11T21:01:30.483Z,83.10
2022-10-11T21:03:58.321Z,82.82
2022-10-11T21:06:25.764Z,82.76
2022-10-11T21:08:55.268Z,83.25
2022-10-11T21:11:24.433Z,82.78
2022-10-11T21:13:57.839Z,82.42
2022-10-11T21:16:25.246Z,82.24
2022-10-11T21:18:53.286Z,82.97
2022-10-11T21:21:26.125Z,83.21
2022-10-11T21:24:00.010Z,83.45
2022-10-11T21:26:27.633Z,82.51
2022-10-11T21:28:54.448Z,82.30
2022-10-11T21:31:21.745Z,83.23
2022-10-11T21:33:48.662Z,83.65
2022-10-11T21:36:17.684Z,83.40
2022-10-11T21:38:44.621Z,82.53
2022-10-11T21:41:14.306Z,84.35
2022-10-11T21:43:41.011Z,83.58
2022-10-11T21:46:10.001Z,83.80
2022-10-11T21:48:36.925Z,84.66
2022-10-11T21:51:03.641Z,84.36
2022-10-11T21:53:33.086Z,84.30
2022-10-11T21:56:00.699Z,83.95
2022-10-11T21:58:27.742Z,84.85
2022-10-11T22:00:54.336Z,83.93
2022-10-11T22:03:21.030Z,83.49
2022-10-11T22:05:49.206Z,83.73
2022-10-11T22:08:16.288Z,82.76
2022-10-11T22:10:44.259Z,83.18
2022-10-11T22:13:11.332Z,84.18
2022-10-11T22:15:37.900Z,83.73
2022-10-11T22:18:05.919Z,83.96
2022-10-11T22:20:33.116Z,82.82
2022-10-11T22:22:59.859Z,83.17
2022-10-11T22:25:26.501Z,83.78
2022-10-11T22:27:53.011Z,84.81
2022-10-11T22:30:19.486Z,84.15
2022-10-11T22:32:46.109Z,84.38
2022-10-11T22:35:12.554Z,83.46
2022-10-11T22:37:41.913Z,84.37
2022-10-11T22:40:08.702Z,84.52
2022-10-11T22:42:35.381Z,84.13
2022-10-11T22:45:01.999Z,83.87
2022-10-11T22:47:28.512Z,84.05
2022-10-11T22:49:55.023Z,85.89
2022-10-11T22:52:21.553Z,85.75
2022-10-11T22:54:48.083Z,85.82
2022-10-11T22:57:14.565Z,84.56
2022-10-11T22:59:41.139Z,84.48
2022-10-11T23:02:07.874Z,85.31
2022-10-11T23:04:34.607Z,85.76
2022-10-11T23:07:04.747Z,84.48
2022-10-11T23:09:31.757Z,85.45
2022-10-11T23:11:59.332Z,85.23
2022-10-11T23:14:25.885Z,86.59
2022-10-11T23:16:52.958Z,86.57
2022-10-11T23:19:19.770Z,85.06
2022-10-11T23:21:46.786Z,84.98
2022-10-11T23:24:13.454Z,84.58
2022-10-11T23:26:40.042Z,85.37
2022-10-11T23:29:06.555Z,85.07
2022-10-11T23:31:33.131Z,85.97
2022-10-11T23:33:59.694Z,85.58
2022-10-11T23:36:26.439Z,86.55
2022-10-11T23:38:57.394Z,86.14
2022-10-11T23:41:26.184Z,85.95
2022-10-11T23:43:55.868Z,85.62
2022-10-11T23:46:22.625Z,85.97
2022-10-11T23:48:49.199Z,85.61
2022-10-11T23:51:16.230Z,84.16
2022-10-11T23:53:43.008Z,84.19
2022-10-11T23:56:11.047Z,84.40
2022-10-11T23:58:37.820Z,85.37
